SKAR/AXM METAR and TAF weather

Enter ICAO airport designator
Station Type Date Time Source
SKAR METAR 2021/06/22 15:00 UTC NOAA

SKAR 221500Z 36004KT 9000 SCT020 BKN080 21/18 Q1022 RMK HZ A3020


Station Type Date Time Source
SKAR Decoded METAR 2021/06/22 15:00 UTC NOAA

Armenia / El Eden, Colombia (SKAR) 04-30N 075-43W 1219M
Jun 22, 2021 - 11:00 AM EDT / 2021.06.22 1500 UTC
Wind: from the N (360 degrees) at 5 MPH (4 KT):0
Visibility: 5 mile(s):0
Sky conditions: mostly cloudy
Weather: haze
Temperature: 69 F (21 C)
Dew Point: 64 F (18 C)
Relative Humidity: 82%
Pressure (altimeter): 30.18 in. Hg (1022 hPa)
ob: SKAR 221500Z 36004KT 9000 SCT020 BKN080 21/18 Q1022 RMK HZ A3020
cycle: 15

Station Type Date Time Source
SKAR TAF 2020/12/14 06:45 UTC NOAA

TAF SKAR 140430Z 1406/1506NIL

Example: see airport list